sensor_id;sensor_type;location;lat;lon;timestamp;P1;durP1;ratioP1;P2;durP2;ratioP2
52072;SDS011;38074;51.232;6.826;2023-03-02T00:06:19;1.70;;;0.90;;
52072;SDS011;38074;51.232;6.826;2023-03-02T00:13:35;2.23;;;0.90;;
52072;SDS011;38074;51.232;6.826;2023-03-02T00:20:52;2.37;;;0.80;;
52072;SDS011;38074;51.232;6.826;2023-03-02T00:28:07;2.20;;;0.80;;
52072;SDS011;38074;51.232;6.826;2023-03-02T00:35:23;1.57;;;0.60;;
52072;SDS011;38074;51.232;6.826;2023-03-02T00:42:40;1.95;;;0.88;;
52072;SDS011;38074;51.232;6.826;2023-03-02T00:49:56;1.70;;;0.80;;
52072;SDS011;38074;51.232;6.826;2023-03-02T00:57:12;1.40;;;0.90;;
52072;SDS011;38074;51.232;6.826;2023-03-02T01:04:28;1.87;;;0.97;;
52072;SDS011;38074;51.232;6.826;2023-03-02T01:11:49;3.63;;;0.90;;
52072;SDS011;38074;51.232;6.826;2023-03-02T01:19:05;2.58;;;1.00;;
52072;SDS011;38074;51.232;6.826;2023-03-02T01:26:21;1.23;;;0.70;;
52072;SDS011;38074;51.232;6.826;2023-03-02T01:33:36;1.73;;;0.80;;
52072;SDS011;38074;51.232;6.826;2023-03-02T01:40:52;2.07;;;0.90;;
52072;SDS011;38074;51.232;6.826;2023-03-02T01:48:08;1.30;;;0.53;;
52072;SDS011;38074;51.232;6.826;2023-03-02T01:55:25;1.30;;;0.77;;
52072;SDS011;38074;51.232;6.826;2023-03-02T02:02:45;1.55;;;0.77;;
52072;SDS011;38074;51.232;6.826;2023-03-02T02:10:02;3.10;;;1.00;;
52072;SDS011;38074;51.232;6.826;2023-03-02T02:17:19;1.23;;;0.77;;
52072;SDS011;38074;51.232;6.826;2023-03-02T02:39:24;1.35;;;0.70;;
52072;SDS011;38074;51.232;6.826;2023-03-02T02:46:44;1.50;;;0.80;;
52072;SDS011;38074;51.232;6.826;2023-03-02T02:54:00;0.85;;;0.63;;
52072;SDS011;38074;51.232;6.826;2023-03-02T03:01:18;1.83;;;0.63;;
52072;SDS011;38074;51.232;6.826;2023-03-02T03:15:55;1.35;;;0.70;;
52072;SDS011;38074;51.232;6.826;2023-03-02T03:23:11;1.75;;;0.80;;
52072;SDS011;38074;51.232;6.826;2023-03-02T03:30:27;2.90;;;0.80;;
52072;SDS011;38074;51.232;6.826;2023-03-02T03:37:42;1.20;;;0.70;;
52072;SDS011;38074;51.232;6.826;2023-03-02T03:44:59;1.13;;;0.73;;
52072;SDS011;38074;51.232;6.826;2023-03-02T03:52:15;2.00;;;0.87;;
52072;SDS011;38074;51.232;6.826;2023-03-02T03:59:30;0.90;;;0.50;;
52072;SDS011;38074;51.232;6.826;2023-03-02T04:06:48;1.75;;;0.98;;
52072;SDS011;38074;51.232;6.826;2023-03-02T04:14:04;1.27;;;0.70;;
52072;SDS011;38074;51.232;6.826;2023-03-02T04:21:21;1.17;;;0.60;;
52072;SDS011;38074;51.232;6.826;2023-03-02T04:28:37;1.67;;;0.60;;
52072;SDS011;38074;51.232;6.826;2023-03-02T04:35:52;1.30;;;0.60;;
52072;SDS011;38074;51.232;6.826;2023-03-02T04:43:08;1.23;;;0.50;;
52072;SDS011;38074;51.232;6.826;2023-03-02T04:50:24;1.47;;;0.70;;
52072;SDS011;38074;51.232;6.826;2023-03-02T04:57:39;1.58;;;0.70;;
52072;SDS011;38074;51.232;6.826;2023-03-02T05:04:55;1.27;;;0.68;;
52072;SDS011;38074;51.232;6.826;2023-03-02T05:12:10;1.17;;;0.80;;
52072;SDS011;38074;51.232;6.826;2023-03-02T05:19:26;1.10;;;0.60;;
52072;SDS011;38074;51.232;6.826;2023-03-02T05:26:42;1.17;;;0.60;;
52072;SDS011;38074;51.232;6.826;2023-03-02T05:33:57;0.87;;;0.57;;
52072;SDS011;38074;51.232;6.826;2023-03-02T05:41:13;0.90;;;0.50;;
52072;SDS011;38074;51.232;6.826;2023-03-02T05:48:28;1.95;;;0.90;;
52072;SDS011;38074;51.232;6.826;2023-03-02T05:55:44;1.13;;;0.80;;
52072;SDS011;38074;51.232;6.826;2023-03-02T06:03:00;1.10;;;0.80;;
52072;SDS011;38074;51.232;6.826;2023-03-02T06:10:15;1.30;;;0.70;;
52072;SDS011;38074;51.232;6.826;2023-03-02T06:17:31;2.35;;;0.70;;
52072;SDS011;38074;51.232;6.826;2023-03-02T06:24:47;4.68;;;1.10;;
52072;SDS011;38074;51.232;6.826;2023-03-02T06:32:02;9.18;;;2.95;;
52072;SDS011;38074;51.232;6.826;2023-03-02T06:39:18;7.50;;;2.55;;
52072;SDS011;38074;51.232;6.826;2023-03-02T06:46:33;6.20;;;2.00;;
52072;SDS011;38074;51.232;6.826;2023-03-02T06:53:49;7.90;;;2.20;;
52072;SDS011;38074;51.232;6.826;2023-03-02T07:01:05;6.87;;;1.90;;
52072;SDS011;38074;51.232;6.826;2023-03-02T07:08:21;6.78;;;2.08;;
52072;SDS011;38074;51.232;6.826;2023-03-02T07:15:38;4.38;;;1.75;;
52072;SDS011;38074;51.232;6.826;2023-03-02T07:22:54;9.20;;;2.58;;
52072;SDS011;38074;51.232;6.826;2023-03-02T07:30:09;6.47;;;2.77;;
52072;SDS011;38074;51.232;6.826;2023-03-02T07:37:25;6.88;;;3.10;;
52072;SDS011;38074;51.232;6.826;2023-03-02T07:44:41;5.07;;;2.70;;
52072;SDS011;38074;51.232;6.826;2023-03-02T07:51:57;6.07;;;2.40;;
52072;SDS011;38074;51.232;6.826;2023-03-02T07:59:12;4.23;;;2.00;;
52072;SDS011;38074;51.232;6.826;2023-03-02T08:06:28;4.28;;;2.10;;
52072;SDS011;38074;51.232;6.826;2023-03-02T08:13:44;5.55;;;1.80;;
52072;SDS011;38074;51.232;6.826;2023-03-02T08:21:00;5.40;;;1.92;;
52072;SDS011;38074;51.232;6.826;2023-03-02T08:28:16;3.50;;;1.80;;
52072;SDS011;38074;51.232;6.826;2023-03-02T08:35:31;4.23;;;1.93;;
52072;SDS011;38074;51.232;6.826;2023-03-02T08:42:47;3.10;;;1.67;;
52072;SDS011;38074;51.232;6.826;2023-03-02T08:50:04;2.73;;;1.73;;
52072;SDS011;38074;51.232;6.826;2023-03-02T08:57:20;2.78;;;1.60;;
52072;SDS011;38074;51.232;6.826;2023-03-02T09:04:35;3.43;;;1.20;;
52072;SDS011;38074;51.232;6.826;2023-03-02T09:11:51;2.47;;;1.10;;
52072;SDS011;38074;51.232;6.826;2023-03-02T09:19:06;3.53;;;1.38;;
52072;SDS011;38074;51.232;6.826;2023-03-02T09:26:23;2.25;;;1.25;;
52072;SDS011;38074;51.232;6.826;2023-03-02T09:33:39;3.20;;;1.27;;
52072;SDS011;38074;51.232;6.826;2023-03-02T09:41:01;3.33;;;1.08;;
52072;SDS011;38074;51.232;6.826;2023-03-02T09:48:37;3.17;;;1.58;;
52072;SDS011;38074;51.232;6.826;2023-03-02T09:56:12;2.88;;;1.05;;
52072;SDS011;38074;51.232;6.826;2023-03-02T10:03:35;2.47;;;0.93;;
52072;SDS011;38074;51.232;6.826;2023-03-02T10:19:26;3.47;;;1.33;;
52072;SDS011;38074;51.232;6.826;2023-03-02T10:26:41;3.80;;;1.60;;
52072;SDS011;38074;51.232;6.826;2023-03-02T10:33:59;2.13;;;0.95;;
52072;SDS011;38074;51.232;6.826;2023-03-02T10:41:17;4.50;;;0.98;;
52072;SDS011;38074;51.232;6.826;2023-03-02T10:48:48;3.00;;;0.98;;
52072;SDS011;38074;51.232;6.826;2023-03-02T10:56:03;2.22;;;1.13;;
52072;SDS011;38074;51.232;6.826;2023-03-02T11:03:20;2.10;;;0.80;;
52072;SDS011;38074;51.232;6.826;2023-03-02T11:10:38;4.57;;;1.10;;
52072;SDS011;38074;51.232;6.826;2023-03-02T11:25:39;3.47;;;1.02;;
52072;SDS011;38074;51.232;6.826;2023-03-02T11:33:06;4.35;;;1.05;;
52072;SDS011;38074;51.232;6.826;2023-03-02T11:47:52;3.47;;;1.23;;
52072;SDS011;38074;51.232;6.826;2023-03-02T12:02:26;2.95;;;1.30;;
52072;SDS011;38074;51.232;6.826;2023-03-02T12:09:42;3.63;;;1.20;;
52072;SDS011;38074;51.232;6.826;2023-03-02T12:24:40;7.75;;;1.30;;
52072;SDS011;38074;51.232;6.826;2023-03-02T12:31:57;2.92;;;1.00;;
52072;SDS011;38074;51.232;6.826;2023-03-02T12:46:57;4.82;;;1.20;;
52072;SDS011;38074;51.232;6.826;2023-03-02T12:54:15;3.53;;;1.33;;
52072;SDS011;38074;51.232;6.826;2023-03-02T13:01:32;4.50;;;1.45;;
52072;SDS011;38074;51.232;6.826;2023-03-02T13:08:49;4.50;;;1.38;;
52072;SDS011;38074;51.232;6.826;2023-03-02T13:16:18;2.67;;;1.10;;
52072;SDS011;38074;51.232;6.826;2023-03-02T13:23:43;3.80;;;1.25;;
52072;SDS011;38074;51.232;6.826;2023-03-02T13:31:02;2.22;;;0.98;;
52072;SDS011;38074;51.232;6.826;2023-03-02T13:38:20;1.95;;;0.85;;
52072;SDS011;38074;51.232;6.826;2023-03-02T13:45:37;3.83;;;1.30;;
52072;SDS011;38074;51.232;6.826;2023-03-02T13:52:57;2.17;;;1.00;;
52072;SDS011;38074;51.232;6.826;2023-03-02T14:00:20;2.30;;;1.15;;
52072;SDS011;38074;51.232;6.826;2023-03-02T14:07:37;1.85;;;0.95;;
52072;SDS011;38074;51.232;6.826;2023-03-02T14:14:53;4.57;;;1.00;;
52072;SDS011;38074;51.232;6.826;2023-03-02T14:22:11;3.38;;;0.90;;
52072;SDS011;38074;51.232;6.826;2023-03-02T14:29:28;3.27;;;1.07;;
52072;SDS011;38074;51.232;6.826;2023-03-02T14:36:46;3.08;;;1.10;;
52072;SDS011;38074;51.232;6.826;2023-03-02T14:44:04;1.50;;;0.70;;
52072;SDS011;38074;51.232;6.826;2023-03-02T14:51:23;1.90;;;0.90;;
52072;SDS011;38074;51.232;6.826;2023-03-02T14:58:42;1.90;;;0.90;;
52072;SDS011;38074;51.232;6.826;2023-03-02T15:05:57;4.40;;;0.93;;
52072;SDS011;38074;51.232;6.826;2023-03-02T15:13:13;2.50;;;0.97;;
52072;SDS011;38074;51.232;6.826;2023-03-02T15:20:29;2.75;;;1.08;;
52072;SDS011;38074;51.232;6.826;2023-03-02T15:27:44;10.68;;;2.20;;
52072;SDS011;38074;51.232;6.826;2023-03-02T15:35:00;4.90;;;2.53;;
52072;SDS011;38074;51.232;6.826;2023-03-02T15:42:16;7.15;;;1.90;;
52072;SDS011;38074;51.232;6.826;2023-03-02T15:49:31;4.53;;;1.80;;
52072;SDS011;38074;51.232;6.826;2023-03-02T15:56:47;2.70;;;1.53;;
52072;SDS011;38074;51.232;6.826;2023-03-02T16:04:07;4.05;;;1.23;;
52072;SDS011;38074;51.232;6.826;2023-03-02T16:11:22;4.37;;;1.23;;
52072;SDS011;38074;51.232;6.826;2023-03-02T16:18:38;3.00;;;1.10;;
52072;SDS011;38074;51.232;6.826;2023-03-02T16:25:53;2.97;;;0.90;;
52072;SDS011;38074;51.232;6.826;2023-03-02T16:33:10;1.53;;;0.73;;
52072;SDS011;38074;51.232;6.826;2023-03-02T16:40:28;1.73;;;0.60;;
52072;SDS011;38074;51.232;6.826;2023-03-02T16:47:44;2.75;;;0.68;;
52072;SDS011;38074;51.232;6.826;2023-03-02T16:55:00;5.18;;;1.30;;
52072;SDS011;38074;51.232;6.826;2023-03-02T17:02:16;7.53;;;1.38;;
52072;SDS011;38074;51.232;6.826;2023-03-02T17:09:35;5.13;;;1.47;;
52072;SDS011;38074;51.232;6.826;2023-03-02T17:16:55;4.15;;;1.30;;
52072;SDS011;38074;51.232;6.826;2023-03-02T17:24:10;4.97;;;1.30;;
52072;SDS011;38074;51.232;6.826;2023-03-02T17:31:27;7.50;;;1.73;;
52072;SDS011;38074;51.232;6.826;2023-03-02T17:38:43;6.20;;;1.50;;
52072;SDS011;38074;51.232;6.826;2023-03-02T17:46:12;5.97;;;1.57;;
52072;SDS011;38074;51.232;6.826;2023-03-02T17:53:36;3.28;;;1.02;;
52072;SDS011;38074;51.232;6.826;2023-03-02T18:00:52;7.55;;;1.27;;
52072;SDS011;38074;51.232;6.826;2023-03-02T18:08:07;2.97;;;1.13;;
52072;SDS011;38074;51.232;6.826;2023-03-02T18:15:23;4.23;;;1.17;;
52072;SDS011;38074;51.232;6.826;2023-03-02T18:22:41;4.18;;;0.90;;
52072;SDS011;38074;51.232;6.826;2023-03-02T18:29:56;5.70;;;1.13;;
52072;SDS011;38074;51.232;6.826;2023-03-02T18:37:12;6.30;;;1.33;;
52072;SDS011;38074;51.232;6.826;2023-03-02T18:44:27;7.23;;;1.63;;
52072;SDS011;38074;51.232;6.826;2023-03-02T18:59:00;6.28;;;1.52;;
52072;SDS011;38074;51.232;6.826;2023-03-02T19:06:19;2.35;;;0.95;;
52072;SDS011;38074;51.232;6.826;2023-03-02T19:13:36;2.53;;;1.17;;
52072;SDS011;38074;51.232;6.826;2023-03-02T19:20:52;4.43;;;1.03;;
52072;SDS011;38074;51.232;6.826;2023-03-02T19:28:09;5.30;;;1.33;;
52072;SDS011;38074;51.232;6.826;2023-03-02T19:35:25;4.63;;;1.20;;
52072;SDS011;38074;51.232;6.826;2023-03-02T19:42:43;2.88;;;1.00;;
52072;SDS011;38074;51.232;6.826;2023-03-02T19:49:59;4.93;;;1.13;;
52072;SDS011;38074;51.232;6.826;2023-03-02T19:57:15;6.87;;;1.37;;
52072;SDS011;38074;51.232;6.826;2023-03-02T20:04:30;3.40;;;0.97;;
52072;SDS011;38074;51.232;6.826;2023-03-02T20:11:47;3.63;;;1.33;;
52072;SDS011;38074;51.232;6.826;2023-03-02T20:19:03;4.23;;;1.07;;
52072;SDS011;38074;51.232;6.826;2023-03-02T20:26:20;2.50;;;1.10;;
52072;SDS011;38074;51.232;6.826;2023-03-02T20:33:38;2.65;;;1.23;;
52072;SDS011;38074;51.232;6.826;2023-03-02T20:41:00;3.28;;;1.50;;
52072;SDS011;38074;51.232;6.826;2023-03-02T20:48:15;2.92;;;1.08;;
52072;SDS011;38074;51.232;6.826;2023-03-02T20:55:32;3.22;;;1.00;;
52072;SDS011;38074;51.232;6.826;2023-03-02T21:02:48;2.63;;;1.23;;
52072;SDS011;38074;51.232;6.826;2023-03-02T21:10:05;4.25;;;1.30;;
52072;SDS011;38074;51.232;6.826;2023-03-02T21:17:23;2.00;;;1.02;;
52072;SDS011;38074;51.232;6.826;2023-03-02T21:24:39;5.25;;;1.23;;
52072;SDS011;38074;51.232;6.826;2023-03-02T21:31:55;2.40;;;1.10;;
52072;SDS011;38074;51.232;6.826;2023-03-02T21:39:10;4.20;;;0.90;;
52072;SDS011;38074;51.232;6.826;2023-03-02T21:46:26;3.38;;;1.23;;
52072;SDS011;38074;51.232;6.826;2023-03-02T21:53:42;2.22;;;0.90;;
52072;SDS011;38074;51.232;6.826;2023-03-02T22:00:58;2.10;;;0.97;;
52072;SDS011;38074;51.232;6.826;2023-03-02T22:08:15;2.95;;;1.13;;
52072;SDS011;38074;51.232;6.826;2023-03-02T22:15:31;2.63;;;1.13;;
52072;SDS011;38074;51.232;6.826;2023-03-02T22:22:47;1.40;;;1.07;;
52072;SDS011;38074;51.232;6.826;2023-03-02T22:30:18;2.08;;;1.20;;
52072;SDS011;38074;51.232;6.826;2023-03-02T22:37:35;2.60;;;1.25;;
52072;SDS011;38074;51.232;6.826;2023-03-02T22:52:13;2.35;;;1.13;;
52072;SDS011;38074;51.232;6.826;2023-03-02T22:59:34;1.38;;;1.08;;
52072;SDS011;38074;51.232;6.826;2023-03-02T23:14:17;1.95;;;1.33;;
52072;SDS011;38074;51.232;6.826;2023-03-02T23:21:37;2.00;;;1.30;;
52072;SDS011;38074;51.232;6.826;2023-03-02T23:28:53;3.10;;;1.30;;
52072;SDS011;38074;51.232;6.826;2023-03-02T23:36:09;2.30;;;1.45;;
52072;SDS011;38074;51.232;6.826;2023-03-02T23:43:25;2.22;;;1.75;;
52072;SDS011;38074;51.232;6.826;2023-03-02T23:50:41;2.10;;;1.50;;
52072;SDS011;38074;51.232;6.826;2023-03-02T23:57:58;2.00;;;1.45;;
